Time;durP1;ratioP1;P1;durP2;ratioP2;P2;SDS_P1;SDS_P2;PMS_P1;PMS_P2;Temp;Humidity;BMP_temperature;BMP_pressure;BME280_temperature;BME280_humidity;BME280_pressure;Samples;Min_cycle;Max_cycle;Signal;HPM_P1;HPM_P2
2022/12/27 00:01:10;;;;;;;;;;;;;;;7.41;86.90;101833.50;7357545;19;20602;-67
2022/12/27 00:03:39;;;;;;;;;;;;;;;7.38;86.19;101833.69;7357851;19;19923;-67
2022/12/27 00:06:10;;;;;;;;;;;;;;;7.38;86.06;101839.75;7352872;19;19915;-67
2022/12/27 00:08:37;;;;;;;;;;;;;;;7.39;86.07;101838.81;7358338;19;19930;-68
2022/12/27 00:11:08;;;;;;;;;;;;;;;7.43;86.12;101842.06;7355710;19;19925;-68
2022/12/27 00:13:41;;;;;;;;;;;;;;;7.42;86.38;101838.59;7358519;19;19922;-68
2022/12/27 00:16:09;;;;;;;;;;;;;;;7.42;86.92;101841.22;7359325;19;19930;-67
2022/12/27 00:18:36;;;;;;;;;;;;;;;7.42;86.80;101848.22;7358453;19;19918;-68
2022/12/27 00:21:03;;;;;;;;;;;;;;;7.39;86.43;101848.47;7356725;19;20867;-66
2022/12/27 00:23:32;;;;;;;;;;;;;;;7.40;86.36;101858.00;7357776;19;20907;-67
2022/12/27 00:26:01;;;;;;;;;;;;;;;7.39;86.88;101854.53;7357715;19;19923;-68
2022/12/27 00:28:29;;;;;;;;;;;;;;;7.41;87.17;101860.50;7357883;19;20549;-67
2022/12/27 00:30:57;;;;;;;;;;;;;;;7.40;86.80;101861.44;7357888;19;19919;-68
2022/12/27 00:33:24;;;;;;;;;;;;;;;7.39;86.35;101870.25;7355839;19;19926;-67
2022/12/27 00:35:51;;;;;;;;;;;;;;;7.37;86.21;101864.25;7354001;19;19919;-66
2022/12/27 00:38:18;;;;;;;;;;;;;;;7.38;86.63;101870.34;7356910;19;20708;-67
2022/12/27 00:40:45;;;;;;;;;;;;;;;7.37;86.59;101872.13;7357284;19;20479;-67
2022/12/27 00:43:12;;;;;;;;;;;;;;;7.37;87.47;101882.59;7358487;19;19918;-67
2022/12/27 00:45:38;;;;;;;;;;;;;;;7.37;88.31;101869.50;7358637;19;20679;-66
2022/12/27 00:48:05;;;;;;;;;;;;;;;7.39;87.68;101872.84;7356858;19;20431;-66
2022/12/27 00:50:32;;;;;;;;;;;;;;;7.40;87.60;101874.53;7355698;19;20372;-66
2022/12/27 00:52:58;;;;;;;;;;;;;;;7.40;87.56;101864.06;7353344;19;19919;-66
2022/12/27 00:55:25;;;;;;;;;;;;;;;7.38;87.54;101865.94;7358235;19;20395;-67
2022/12/27 00:57:52;;;;;;;;;;;;;;;7.39;87.78;101867.63;7355057;19;20245;-67
2022/12/27 01:00:19;;;;;;;;;;;;;;;7.32;86.91;101859.34;7353388;19;19931;-68
2022/12/27 01:02:46;;;;;;;;;;;;;;;7.25;86.58;101858.13;7354020;19;19923;-67
2022/12/27 01:05:13;;;;;;;;;;;;;;;7.22;86.43;101866.16;7355790;19;19926;-67
2022/12/27 01:07:40;;;;;;;;;;;;;;;7.21;87.26;101872.34;7355727;19;19929;-67
2022/12/27 01:10:06;;;;;;;;;;;;;;;7.22;87.32;101868.78;7355988;19;19919;-68
2022/12/27 01:12:34;;;;;;;;;;;;;;;7.21;86.81;101872.34;7355585;19;19919;-67
2022/12/27 01:15:00;;;;;;;;;;;;;;;7.23;87.21;101869.63;7357017;19;19918;-67
2022/12/27 01:17:30;;;;;;;;;;;;;;;7.25;87.68;101862.50;7355948;19;19915;-66
2022/12/27 01:19:57;;;;;;;;;;;;;;;7.27;88.02;101871.06;7354645;19;19929;-67
2022/12/27 01:22:23;;;;;;;;;;;;;;;7.28;87.67;101867.53;7354906;19;19923;-67
2022/12/27 01:24:50;;;;;;;;;;;;;;;7.28;88.06;101870.97;7356084;19;20285;-68
2022/12/27 01:27:17;;;;;;;;;;;;;;;7.28;87.58;101870.13;7355430;19;19937;-67
2022/12/27 01:29:44;;;;;;;;;;;;;;;7.29;87.45;101861.34;7355761;19;19934;-67
2022/12/27 01:32:10;;;;;;;;;;;;;;;7.28;87.39;101868.38;7356399;19;20131;-68
2022/12/27 01:34:37;;;;;;;;;;;;;;;7.26;87.13;101872.84;7356191;19;19943;-67
2022/12/27 01:37:04;;;;;;;;;;;;;;;7.27;87.08;101879.78;7353607;19;20495;-67
2022/12/27 01:39:30;;;;;;;;;;;;;;;7.28;87.08;101880.59;7354357;19;19918;-68
2022/12/27 01:44:50;;;;;;;;;;;;;;;7.13;87.08;101884.28;7357073;19;19933;-67
2022/12/27 01:47:16;;;;;;;;;;;;;;;7.12;87.56;101885.22;7354337;19;19939;-67
2022/12/27 01:50:03;;;;;;;;;;;;;;;7.12;87.97;101888.66;7352553;19;19915;-66
2022/12/27 01:52:55;;;;;;;;;;;;;;;7.10;87.78;101892.34;7354152;19;20031;-66
2022/12/27 01:55:27;;;;;;;;;;;;;;;7.11;87.86;101889.59;7353915;19;19950;-66
2022/12/27 01:57:56;;;;;;;;;;;;;;;7.08;87.77;101887.22;7354240;19;20023;-67
2022/12/27 02:00:23;;;;;;;;;;;;;;;7.08;87.82;101896.84;7354876;19;19923;-67
2022/12/27 02:02:50;;;;;;;;;;;;;;;7.08;87.76;101894.22;7355399;19;20814;-67
2022/12/27 02:05:18;;;;;;;;;;;;;;;7.08;88.65;101895.06;7350159;19;20495;-68
2022/12/27 02:08:03;;;;;;;;;;;;;;;7.10;88.89;101908.03;7352188;19;20169;-66
2022/12/27 02:10:30;;;;;;;;;;;;;;;7.10;88.19;101905.44;7352732;19;20449;-68
2022/12/27 02:12:57;;;;;;;;;;;;;;;7.06;88.28;101907.41;7353758;19;19926;-68
2022/12/27 02:15:23;;;;;;;;;;;;;;;7.06;87.98;101920.47;7354098;19;19929;-68
2022/12/27 02:17:50;;;;;;;;;;;;;;;7.07;88.20;101919.53;7355178;19;19922;-68
2022/12/27 02:20:21;;;;;;;;;;;;;;;7.08;87.80;101923.84;7351270;19;19919;-66
2022/12/27 02:25:39;;;;;;;;;;;;;;;7.09;87.95;101917.66;7358577;19;19939;-67
2022/12/27 02:28:24;;;;;;;;;;;;;;;7.06;87.40;101922.28;7361530;19;20246;-67
2022/12/27 02:30:55;;;;;;;;;;;;;;;7.05;87.96;101918.81;7357952;19;19933;-67
2022/12/27 02:33:27;;;;;;;;;;;;;;;7.02;88.22;101915.56;7359875;19;20255;-68
2022/12/27 02:35:57;;;;;;;;;;;;;;;6.99;88.13;101926.25;7359562;19;19926;-68
2022/12/27 02:38:28;;;;;;;;;;;;;;;6.97;88.00;101918.47;7358608;19;20936;-67
2022/12/27 02:55:19;;;;;;;;;;;;;;;6.97;88.73;101917.63;7361172;19;19934;-67
2022/12/27 02:57:46;;;;;;;;;;;;;;;7.00;89.09;101920.06;7362084;19;20324;-66
2022/12/27 03:09:06;;;;;;;;;;;;;;;7.00;87.98;101920.91;7359989;19;19926;-66
2022/12/27 03:17:29;;;;;;;;;;;;;;;7.01;88.33;101912.09;7359523;19;20234;-67
2022/12/27 03:25:33;;;;;;;;;;;;;;;6.95;88.00;101896.84;7360323;19;19941;-68
2022/12/27 03:33:38;;;;;;;;;;;;;;;6.96;88.74;101892.44;7357633;19;20564;-66
2022/12/27 03:39:07;;;;;;;;;;;;;;;6.96;89.16;101905.53;7358797;19;19922;-67
2022/12/27 03:44:38;;;;;;;;;;;;;;;6.95;88.51;101920.38;7360277;19;21581;-66
2022/12/27 03:47:08;;;;;;;;;;;;;;;6.94;88.44;101923.94;7359705;19;19914;-66
2022/12/27 03:49:42;;;;;;;;;;;;;;;6.95;88.60;101932.63;7360170;19;19918;-67
2022/12/27 03:52:24;;;;;;;;;;;;;;;6.96;89.01;101924.66;7353357;19;19946;-66
2022/12/27 03:54:51;;;;;;;;;;;;;;;6.98;90.17;101921.94;7359003;19;19930;-68
2022/12/27 03:57:22;;;;;;;;;;;;;;;6.96;90.09;101916.81;7357693;19;19930;-67
2022/12/27 03:59:49;;;;;;;;;;;;;;;6.93;89.56;101908.31;7358999;19;19934;-67
2022/12/27 04:02:16;;;;;;;;;;;;;;;6.92;90.05;101904.88;7356857;19;19950;-67
2022/12/27 04:04:43;;;;;;;;;;;;;;;6.92;90.37;101914.50;7354836;19;19923;-66
2022/12/27 04:07:12;;;;;;;;;;;;;;;6.88;90.10;101914.72;7355391;19;19918;-68
2022/12/27 04:34:44;;;;;;;;;;;;;;;6.81;88.96;101909.97;7357671;19;20324;-68
2022/12/27 04:37:14;;;;;;;;;;;;;;;6.79;88.88;101911.88;7354345;19;19947;-66
2022/12/27 04:54:55;;;;;;;;;;;;;;;6.75;88.95;101908.63;7355586;19;19951;-66
2022/12/27 04:56:20;;;;;;;;;;;;;;;6.74;89.11;101887.81;7355911;19;19919;-68
2022/12/27 05:04:17;;;;;;;;;;;;;;;6.80;89.91;101887.41;7356539;19;19956;-67
2022/12/27 05:06:43;;;;;;;;;;;;;;;6.78;89.34;101876.19;7355646;19;19943;-67
2022/12/27 05:14:41;;;;;;;;;;;;;;;6.78;88.99;101887.50;7355481;19;20274;-67
2022/12/27 05:17:07;;;;;;;;;;;;;;;6.80;89.10;101892.63;7355957;19;20349;-67
2022/12/27 05:19:34;;;;;;;;;;;;;;;6.79;88.89;101885.72;7355238;19;19923;-67
2022/12/27 05:27:31;;;;;;;;;;;;;;;6.86;89.87;101881.72;7356406;19;19926;-66
2022/12/27 05:29:58;;;;;;;;;;;;;;;6.88;90.15;101879.88;7353217;19;19962;-67
2022/12/27 05:32:25;;;;;;;;;;;;;;;6.90;90.27;101877.16;7355910;19;19926;-67
2022/12/27 05:34:51;;;;;;;;;;;;;;;6.88;89.71;101878.09;7355607;19;19930;-67
2022/12/27 05:37:18;;;;;;;;;;;;;;;6.86;89.32;101884.34;7353765;19;20255;-66
2022/12/27 05:39:45;;;;;;;;;;;;;;;6.87;89.34;101884.25;7354468;19;19919;-67
2022/12/27 05:42:11;;;;;;;;;;;;;;;6.88;89.55;101882.47;7356111;19;19915;-67
2022/12/27 05:44:38;;;;;;;;;;;;;;;6.89;89.65;101881.53;7354310;19;19930;-67
2022/12/27 05:47:05;;;;;;;;;;;;;;;6.88;89.39;101879.88;7355697;19;20499;-67
2022/12/27 05:49:31;;;;;;;;;;;;;;;6.91;89.53;101890.09;7354940;19;19947;-67
2022/12/27 05:51:58;;;;;;;;;;;;;;;6.94;89.82;101891.69;7351422;19;20065;-67
2022/12/27 05:54:25;;;;;;;;;;;;;;;6.96;89.59;101885.41;7354837;19;19919;-67
2022/12/27 05:56:51;;;;;;;;;;;;;;;6.97;89.26;101884.47;7352457;19;19919;-67
2022/12/27 05:59:18;;;;;;;;;;;;;;;6.98;89.65;101883.53;7354760;19;19923;-66
2022/12/27 06:01:45;;;;;;;;;;;;;;;7.01;89.57;101879.91;7359754;19;20343;-67
2022/12/27 06:04:12;;;;;;;;;;;;;;;7.02;89.57;101877.16;7361390;19;19921;-67
2022/12/27 06:06:38;;;;;;;;;;;;;;;7.05;89.06;101886.59;7356825;19;20233;-66
2022/12/27 06:09:05;;;;;;;;;;;;;;;7.05;89.10;101882.19;7360943;19;19934;-67
2022/12/27 06:11:32;;;;;;;;;;;;;;;7.06;89.11;101877.81;7361299;19;19919;-67
2022/12/27 06:13:58;;;;;;;;;;;;;;;7.06;89.18;101868.16;7362017;19;19930;-67
2022/12/27 06:16:25;;;;;;;;;;;;;;;7.07;89.44;101864.59;7359089;19;20011;-67
2022/12/27 06:18:52;;;;;;;;;;;;;;;7.08;89.32;101868.06;7361908;19;19926;-66
2022/12/27 06:21:19;;;;;;;;;;;;;;;7.07;89.39;101851.50;7357539;19;19918;-67
2022/12/27 06:23:47;;;;;;;;;;;;;;;7.09;89.85;101854.88;7360725;19;19926;-66
2022/12/27 06:26:21;;;;;;;;;;;;;;;7.10;90.36;101851.31;7359579;19;21147;-66
2022/12/27 06:28:48;;;;;;;;;;;;;;;7.13;90.61;101839.78;7361505;19;20598;-67
2022/12/27 06:31:16;;;;;;;;;;;;;;;7.13;89.72;101831.94;7361125;19;19923;-66
2022/12/27 06:33:43;;;;;;;;;;;;;;;7.17;90.53;101841.25;7357436;19;19918;-67
2022/12/27 06:36:11;;;;;;;;;;;;;;;7.20;91.21;101833.19;7358431;19;19935;-67
2022/12/27 06:38:37;;;;;;;;;;;;;;;7.19;90.89;101826.28;7359834;19;19953;-66
2022/12/27 06:41:06;;;;;;;;;;;;;;;7.20;90.14;101831.44;7357863;19;19943;-68
2022/12/27 06:43:33;;;;;;;;;;;;;;;7.18;89.98;101814.13;7361533;19;21170;-67
2022/12/27 06:46:01;;;;;;;;;;;;;;;7.22;90.74;101818.22;7359223;19;19922;-66
2022/12/27 06:48:28;;;;;;;;;;;;;;;7.22;90.43;101819.06;7358478;19;19918;-66
2022/12/27 06:50:54;;;;;;;;;;;;;;;7.24;90.40;101824.19;7356757;19;20327;-66
2022/12/27 06:53:21;;;;;;;;;;;;;;;7.26;90.69;101819.69;7359810;19;19967;-66
2022/12/27 06:55:48;;;;;;;;;;;;;;;7.26;90.53;101820.50;7358503;19;19945;-67
2022/12/27 06:58:15;;;;;;;;;;;;;;;7.28;90.27;101820.41;7359529;19;19926;-66
2022/12/27 07:00:41;;;;;;;;;;;;;;;7.32;90.25;101814.00;7357887;19;19948;-67
2022/12/27 07:03:08;;;;;;;;;;;;;;;7.34;90.36;101811.28;7360367;19;20318;-67
2022/12/27 07:05:35;;;;;;;;;;;;;;;7.37;90.62;101809.28;7357324;19;19934;-68
2022/12/27 07:08:02;;;;;;;;;;;;;;;7.39;90.63;101807.41;7355832;19;19933;-68
2022/12/27 07:10:29;;;;;;;;;;;;;;;7.41;90.73;101802.91;7358730;19;20010;-67
2022/12/27 07:13:04;;;;;;;;;;;;;;;7.42;90.46;101794.09;7357970;19;19961;-67
2022/12/27 07:15:32;;;;;;;;;;;;;;;7.42;90.03;101798.50;7359723;19;19922;-67
2022/12/27 07:17:58;;;;;;;;;;;;;;;7.42;89.91;101796.72;7360722;19;19923;-68
2022/12/27 07:20:32;;;;;;;;;;;;;;;7.45;90.11;101785.19;7356674;19;20119;-68
2022/12/27 07:22:59;;;;;;;;;;;;;;;7.50;90.30;101794.41;7358610;19;19927;-67
2022/12/27 07:25:26;;;;;;;;;;;;;;;7.53;90.26;101788.09;7360035;19;20522;-67
2022/12/27 07:27:53;;;;;;;;;;;;;;;7.55;89.88;101787.06;7360334;19;20069;-67
2022/12/27 07:30:20;;;;;;;;;;;;;;;7.60;90.59;101795.41;7358630;19;19910;-67
2022/12/27 07:32:46;;;;;;;;;;;;;;;7.63;90.33;101807.44;7359182;19;19939;-68
2022/12/27 07:35:13;;;;;;;;;;;;;;;7.65;90.49;101795.09;7357577;19;20273;-67
2022/12/27 07:37:40;;;;;;;;;;;;;;;7.69;91.09;101794.75;7359779;19;19922;-67
2022/12/27 07:40:07;;;;;;;;;;;;;;;7.72;90.84;101801.53;7360114;19;19963;-68
2022/12/27 07:42:33;;;;;;;;;;;;;;;7.74;90.60;101794.41;7356491;19;19926;-67
2022/12/27 07:45:00;;;;;;;;;;;;;;;7.78;90.87;101801.09;7361249;19;20602;-68
2022/12/27 07:47:27;;;;;;;;;;;;;;;7.83;91.08;101801.59;7360998;19;21570;-66
2022/12/27 07:49:53;;;;;;;;;;;;;;;7.88;90.98;101803.91;7359562;19;20266;-67
2022/12/27 07:52:20;;;;;;;;;;;;;;;7.91;91.14;101801.91;7357579;19;20172;-67
2022/12/27 07:54:47;;;;;;;;;;;;;;;7.97;91.24;101813.72;7358051;19;19914;-67
2022/12/27 07:57:13;;;;;;;;;;;;;;;8.00;91.49;101811.72;7358454;19;19911;-68
2022/12/27 07:59:40;;;;;;;;;;;;;;;8.04;91.75;101826.25;7358966;19;20794;-67
2022/12/27 08:02:08;;;;;;;;;;;;;;;8.07;91.93;101827.84;7357817;19;19972;-67
2022/12/27 08:04:37;;;;;;;;;;;;;;;8.09;91.50;101829.38;7357986;19;19951;-67
2022/12/27 08:07:05;;;;;;;;;;;;;;;8.13;91.52;101822.97;7355832;19;20489;-69
2022/12/27 08:09:35;;;;;;;;;;;;;;;8.16;91.79;101825.38;7355003;19;19926;-68
2022/12/27 08:12:02;;;;;;;;;;;;;;;8.18;91.36;101821.81;7357528;19;19933;-67
2022/12/27 08:14:28;;;;;;;;;;;;;;;8.21;91.45;101816.34;7356295;19;19927;-67
2022/12/27 08:16:58;;;;;;;;;;;;;;;8.24;91.39;101818.72;7357812;19;19937;-67
2022/12/27 08:19:24;;;;;;;;;;;;;;;8.26;91.56;101811.59;7358884;19;19938;-67
2022/12/27 08:21:51;;;;;;;;;;;;;;;8.25;91.48;101816.00;7353393;19;20515;-67
2022/12/27 08:24:18;;;;;;;;;;;;;;;8.25;91.12;101816.00;7353289;19;19915;-67
2022/12/27 08:26:45;;;;;;;;;;;;;;;8.27;90.96;101815.88;7356021;19;19952;-66
2022/12/27 08:29:11;;;;;;;;;;;;;;;8.30;91.00;101821.75;7357992;19;20729;-67
2022/12/27 08:31:38;;;;;;;;;;;;;;;8.31;91.13;101815.56;7357514;19;19994;-68
2022/12/27 08:34:05;;;;;;;;;;;;;;;8.30;90.55;101816.53;7354731;19;19938;-67
2022/12/27 08:36:32;;;;;;;;;;;;;;;8.32;90.88;101819.03;7355306;19;20439;-68
2022/12/27 08:39:18;;;;;;;;;;;;;;;8.32;90.56;101819.03;7357355;19;20381;-67
2022/12/27 08:41:45;;;;;;;;;;;;;;;8.33;90.87;101818.91;7353731;19;19986;-71
2022/12/27 08:44:12;;;;;;;;;;;;;;;8.35;91.05;101810.94;7358746;19;20505;-68
2022/12/27 08:46:39;;;;;;;;;;;;;;;8.36;91.56;101821.31;7354901;19;19976;-67
2022/12/27 08:49:06;;;;;;;;;;;;;;;8.36;91.44;101820.47;7358966;19;19931;-67
2022/12/27 08:51:32;;;;;;;;;;;;;;;8.41;91.56;101818.34;7353747;19;19937;-67
2022/12/27 08:54:06;;;;;;;;;;;;;;;8.45;91.98;101812.75;7356595;19;19946;-67
2022/12/27 08:56:33;;;;;;;;;;;;;;;8.47;91.83;101813.50;7357470;19;20111;-67
2022/12/27 08:59:00;;;;;;;;;;;;;;;8.51;91.75;101808.84;7359235;19;19923;-67
2022/12/27 09:01:27;;;;;;;;;;;;;;;8.56;92.25;101806.72;7354496;19;19944;-68
2022/12/27 09:03:54;;;;;;;;;;;;;;;8.63;92.12;101807.94;7357213;19;19923;-66
2022/12/27 09:06:22;;;;;;;;;;;;;;;8.69;91.84;101807.44;7353288;19;19927;-67
2022/12/27 09:08:50;;;;;;;;;;;;;;;8.72;91.58;101801.97;7355808;19;20367;-67
2022/12/27 09:11:18;;;;;;;;;;;;;;;8.75;91.35;101804.34;7353133;19;20925;-67
2022/12/27 09:13:45;;;;;;;;;;;;;;;8.85;91.55;101810.56;7356770;19;19922;-67
2022/12/27 09:16:17;;;;;;;;;;;;;;;8.91;91.38;101802.25;7352899;19;19923;-68
2022/12/27 09:18:46;;;;;;;;;;;;;;;8.96;91.16;101799.25;7353744;19;20702;-68
2022/12/27 09:21:13;;;;;;;;;;;;;;;9.04;91.45;101802.13;7351721;19;19915;-66
2022/12/27 09:23:40;;;;;;;;;;;;;;;9.11;91.46;101799.84;7353723;19;19998;-66
2022/12/27 09:26:09;;;;;;;;;;;;;;;9.17;91.21;101804.63;7354758;19;19927;-67
2022/12/27 09:28:36;;;;;;;;;;;;;;;9.19;90.60;101800.94;7356062;19;19931;-66
2022/12/27 09:31:03;;;;;;;;;;;;;;;9.25;90.26;101802.22;7354797;19;19986;-66
2022/12/27 09:33:30;;;;;;;;;;;;;;;9.27;89.84;101792.47;7352946;19;19923;-68
2022/12/27 09:36:00;;;;;;;;;;;;;;;9.29;90.08;101791.41;7360821;19;19915;-67
2022/12/27 09:38:27;;;;;;;;;;;;;;;9.35;89.98;101803.19;7345956;19;20438;-67
2022/12/27 09:40:58;;;;;;;;;;;;;;;9.41;90.51;101811.44;7349210;19;19934;-67
2022/12/27 09:43:43;;;;;;;;;;;;;;;9.43;90.36;101800.81;7355645;19;19915;-67
2022/12/27 09:46:13;;;;;;;;;;;;;;;9.45;90.06;101799.72;7358527;19;19931;-67
2022/12/27 09:48:40;;;;;;;;;;;;;;;9.47;89.66;101801.38;7356088;19;19926;-69
2022/12/27 09:51:16;;;;;;;;;;;;;;;9.47;89.95;101804.84;7354114;19;20596;-67
2022/12/27 09:53:58;;;;;;;;;;;;;;;9.52;90.44;101807.94;7360146;19;20368;-67
2022/12/27 09:56:27;;;;;;;;;;;;;;;9.57;90.65;101795.28;7362152;19;19919;-69
2022/12/27 09:59:17;;;;;;;;;;;;;;;9.58;90.78;101802.22;7362921;19;19919;-66
2022/12/27 10:01:46;;;;;;;;;;;;;;;9.59;90.66;101789.91;7359604;19;20156;-68
2022/12/27 10:04:16;;;;;;;;;;;;;;;9.60;90.78;101791.59;7363091;19;19923;-67
2022/12/27 10:06:50;;;;;;;;;;;;;;;9.59;90.90;101785.50;7357003;19;20472;-67
2022/12/27 10:09:35;;;;;;;;;;;;;;;9.61;90.98;101795.88;7360904;19;20034;-68
2022/12/27 10:12:14;;;;;;;;;;;;;;;9.63;91.27;101789.56;7360909;19;20218;-67
2022/12/27 10:14:47;;;;;;;;;;;;;;;9.67;91.50;101792.75;7362073;19;19918;-67
2022/12/27 10:17:25;;;;;;;;;;;;;;;9.72;91.31;101785.34;7361010;19;19919;-67
2022/12/27 10:20:17;;;;;;;;;;;;;;;9.78;91.47;101775.19;7361990;19;21396;-68
2022/12/27 10:22:50;;;;;;;;;;;;;;;9.90;91.28;101777.78;7359564;19;20311;-67
2022/12/27 10:25:19;;;;;;;;;;;;;;;9.98;90.78;101776.19;7360247;19;20042;-67
2022/12/27 10:27:46;;;;;;;;;;;;;;;10.08;90.21;101774.47;7360952;19;20346;-68
2022/12/27 10:30:15;;;;;;;;;;;;;;;10.17;89.68;101775.53;7360526;19;19946;-67
2022/12/27 10:32:42;;;;;;;;;;;;;;;10.25;89.50;101767.84;7362363;19;20030;-67
2022/12/27 10:35:15;;;;;;;;;;;;;;;10.32;88.77;101761.09;7359799;19;19915;-68
2022/12/27 10:37:42;;;;;;;;;;;;;;;10.40;88.66;101742.91;7359499;19;20399;-66
2022/12/27 10:40:31;;;;;;;;;;;;;;;10.47;88.46;101740.56;7358761;19;19950;-67
2022/12/27 10:43:20;;;;;;;;;;;;;;;10.53;87.83;101740.06;7356634;19;20304;-67
2022/12/27 10:45:47;;;;;;;;;;;;;;;10.56;87.60;101737.19;7357064;19;19955;-67
2022/12/27 10:48:16;;;;;;;;;;;;;;;10.60;87.88;101734.16;7360237;19;19934;-67
2022/12/27 10:50:54;;;;;;;;;;;;;;;10.63;87.43;101731.25;7357444;19;19923;-66
2022/12/27 10:53:27;;;;;;;;;;;;;;;10.68;87.54;101728.22;7356070;19;19911;-67
2022/12/27 10:56:04;;;;;;;;;;;;;;;10.71;87.13;101723.56;7361003;19;19915;-68
2022/12/27 10:58:36;;;;;;;;;;;;;;;10.77;88.04;101714.25;7360646;19;19931;-67
2022/12/27 11:01:03;;;;;;;;;;;;;;;10.81;88.08;101717.50;7357525;19;20426;-67
2022/12/27 11:03:31;;;;;;;;;;;;;;;10.78;87.17;101715.09;7359364;19;19970;-67
2022/12/27 11:06:02;;;;;;;;;;;;;;;10.77;87.41;101706.38;7357621;19;20388;-68
2022/12/27 11:08:29;;;;;;;;;;;;;;;10.76;87.38;101703.88;7357426;19;19923;-67
2022/12/27 11:11:13;;;;;;;;;;;;;;;10.74;87.18;101693.47;7358730;19;19922;-67
2022/12/27 11:13:40;;;;;;;;;;;;;;;10.78;87.38;101694.03;7360754;19;19919;-67
2022/12/27 11:16:12;;;;;;;;;;;;;;;10.81;87.66;101696.44;7359851;19;20027;-68
2022/12/27 11:18:42;;;;;;;;;;;;;;;10.76;86.86;101693.38;7358913;19;19922;-67
2022/12/27 11:21:11;;;;;;;;;;;;;;;10.79;87.46;101683.38;7357049;19;19915;-68
2022/12/27 11:23:53;;;;;;;;;;;;;;;10.82;87.00;101677.03;7358196;19;20406;-69
2022/12/27 11:26:29;;;;;;;;;;;;;;;10.86;87.52;101676.63;7355334;19;19931;-67
2022/12/27 11:28:57;;;;;;;;;;;;;;;10.88;87.76;101666.78;7356959;19;19931;-67
2022/12/27 11:31:27;;;;;;;;;;;;;;;10.89;87.16;101660.56;7357849;19;19923;-67
2022/12/27 11:33:55;;;;;;;;;;;;;;;10.87;86.59;101667.75;7356715;19;19919;-68
2022/12/27 11:36:27;;;;;;;;;;;;;;;10.86;86.80;101655.56;7356956;19;20496;-66
2022/12/27 11:38:53;;;;;;;;;;;;;;;10.88;87.21;101652.78;7356779;19;19929;-67
2022/12/27 11:41:39;;;;;;;;;;;;;;;10.88;87.20;101652.78;7358435;19;19927;-68
2022/12/27 11:44:12;;;;;;;;;;;;;;;10.90;86.97;101653.50;7358735;19;19929;-66
2022/12/27 11:46:41;;;;;;;;;;;;;;;10.92;87.11;101644.47;7355295;19;19919;-67
2022/12/27 11:49:15;;;;;;;;;;;;;;;10.93;87.28;101646.16;7359605;19;19933;-68
2022/12/27 11:52:03;;;;;;;;;;;;;;;10.98;85.99;101643.13;7356054;19;19931;-67
2022/12/27 11:54:48;;;;;;;;;;;;;;;10.98;86.04;101636.06;7359591;19;20167;-67
2022/12/27 11:57:18;;;;;;;;;;;;;;;11.00;86.24;101638.56;7356498;19;19911;-66
2022/12/27 11:59:47;;;;;;;;;;;;;;;11.02;86.48;101629.53;7355857;19;19918;-66
2022/12/27 12:02:42;;;;;;;;;;;;;;;11.01;86.27;101627.91;7358479;19;19941;-67
2022/12/27 12:05:18;;;;;;;;;;;;;;;10.99;86.51;101619.28;7355859;19;20743;-66
2022/12/27 12:08:03;;;;;;;;;;;;;;;11.00;86.71;101615.69;7357039;19;19915;-67
2022/12/27 12:10:40;;;;;;;;;;;;;;;11.03;86.74;101620.69;7357988;19;20695;-67
2022/12/27 12:13:30;;;;;;;;;;;;;;;11.06;87.15;101609.88;7354266;19;19926;-66
2022/12/27 12:16:05;;;;;;;;;;;;;;;11.07;86.60;101602.81;7355013;19;19919;-67
2022/12/27 12:18:41;;;;;;;;;;;;;;;11.09;86.50;101599.06;7358133;19;19930;-67
2022/12/27 12:21:08;;;;;;;;;;;;;;;11.10;86.20;101590.22;7355694;19;19927;-67
2022/12/27 12:23:41;;;;;;;;;;;;;;;11.13;86.33;101583.81;7355503;19;20245;-67
2022/12/27 12:26:12;;;;;;;;;;;;;;;11.17;86.53;101573.84;7357237;19;20295;-68
2022/12/27 12:28:47;;;;;;;;;;;;;;;11.21;86.66;101575.25;7357680;19;19917;-67
2022/12/27 12:31:43;;;;;;;;;;;;;;;11.21;86.00;101564.69;7355788;19;20539;-68
2022/12/27 12:34:30;;;;;;;;;;;;;;;11.22;86.34;101558.47;7353757;19;19934;-67
2022/12/27 12:37:09;;;;;;;;;;;;;;;11.22;86.84;101545.31;7353423;19;19911;-68
2022/12/27 12:39:45;;;;;;;;;;;;;;;11.20;86.90;101545.44;7354968;19;21118;-67
2022/12/27 12:42:21;;;;;;;;;;;;;;;11.24;87.15;101538.06;7353514;19;19922;-67
2022/12/27 12:45:05;;;;;;;;;;;;;;;11.26;86.55;101542.25;7356136;19;19955;-68
2022/12/27 12:47:44;;;;;;;;;;;;;;;11.31;87.15;101520.75;7356444;19;20521;-68
2022/12/27 12:50:10;;;;;;;;;;;;;;;11.35;87.75;101516.84;7354941;19;19919;-67
2022/12/27 12:52:50;;;;;;;;;;;;;;;11.38;87.64;101520.03;7356626;19;20392;-68
2022/12/27 12:55:27;;;;;;;;;;;;;;;11.40;86.96;101515.47;7352583;19;19915;-67
2022/12/27 12:58:22;;;;;;;;;;;;;;;11.46;87.06;101509.63;7355719;19;19918;-67
2022/12/27 13:00:48;;;;;;;;;;;;;;;11.48;86.22;101509.47;7355396;19;19939;-66
2022/12/27 13:03:15;;;;;;;;;;;;;;;11.48;85.06;101505.03;7355191;19;19925;-67
2022/12/27 13:05:51;;;;;;;;;;;;;;;11.51;84.75;101485.50;7355781;19;21578;-67
2022/12/27 13:08:26;;;;;;;;;;;;;;;11.54;84.68;101483.38;7354761;19;19951;-68
2022/12/27 13:11:11;;;;;;;;;;;;;;;11.57;84.33;101484.94;7353712;19;20365;-67
2022/12/27 13:13:48;;;;;;;;;;;;;;;11.62;84.19;101479.22;7357549;19;19946;-67
2022/12/27 13:16:24;;;;;;;;;;;;;;;11.63;83.36;101457.16;7357893;19;19959;-67
2022/12/27 13:19:17;;;;;;;;;;;;;;;11.65;83.03;101448.13;7359677;19;19923;-67
2022/12/27 13:21:56;;;;;;;;;;;;;;;11.71;83.01;101446.72;7354098;19;19961;-66
2022/12/27 13:24:30;;;;;;;;;;;;;;;11.74;82.67;101447.28;7353435;19;19919;-67
2022/12/27 13:27:04;;;;;;;;;;;;;;;11.78;82.61;101446.03;7354391;19;19930;-68
2022/12/27 13:29:38;;;;;;;;;;;;;;;11.80;82.21;101440.59;7354896;19;20011;-68
2022/12/27 13:32:14;;;;;;;;;;;;;;;11.84;82.17;101436.69;7354128;19;19979;-66
2022/12/27 13:34:43;;;;;;;;;;;;;;;11.86;82.28;101430.31;7353845;19;19951;-68
2022/12/27 13:37:18;;;;;;;;;;;;;;;11.88;81.97;101425.72;7352336;19;19959;-67
2022/12/27 13:39:51;;;;;;;;;;;;;;;11.88;81.11;101428.38;7355481;19;21240;-67
2022/12/27 13:42:21;;;;;;;;;;;;;;;11.89;80.93;101413.34;7355204;19;21626;-66
2022/12/27 13:45:08;;;;;;;;;;;;;;;11.89;81.32;101415.97;7355249;19;20294;-68
2022/12/27 13:47:53;;;;;;;;;;;;;;;11.90;81.60;101412.38;7354709;19;20607;-67
2022/12/27 13:50:23;;;;;;;;;;;;;;;11.90;81.43;101404.47;7350594;19;19923;-67
2022/12/27 13:52:50;;;;;;;;;;;;;;;11.88;81.49;101401.16;7352738;19;19923;-68
2022/12/27 13:55:24;;;;;;;;;;;;;;;11.90;81.01;101404.47;7351366;19;20528;-67
2022/12/27 13:58:01;;;;;;;;;;;;;;;11.93;81.71;101401.56;7352973;19;19945;-67
2022/12/27 14:00:39;;;;;;;;;;;;;;;11.95;81.23;101400.41;7351550;19;19919;-68
2022/12/27 14:03:12;;;;;;;;;;;;;;;11.98;81.76;101386.94;7352216;19;19919;-67
2022/12/27 14:05:39;;;;;;;;;;;;;;;11.99;80.82;101395.66;7354548;19;19964;-67
2022/12/27 14:08:13;;;;;;;;;;;;;;;12.02;80.66;101394.56;7353248;19;19923;-68
2022/12/27 14:10:50;;;;;;;;;;;;;;;12.00;80.70;101384.16;7354603;19;20043;-68
2022/12/27 14:13:37;;;;;;;;;;;;;;;11.97;80.43;101384.47;7354642;19;19961;-66
2022/12/27 14:16:20;;;;;;;;;;;;;;;11.96;80.10;101382.78;7353773;19;21632;-67
2022/12/27 14:19:03;;;;;;;;;;;;;;;11.96;80.16;101369.59;7352092;19;19926;-68
2022/12/27 14:21:48;;;;;;;;;;;;;;;11.97;79.90;101374.75;7356371;19;19918;-68
2022/12/27 14:24:24;;;;;;;;;;;;;;;11.97;80.26;101360.72;7359987;19;19972;-67
2022/12/27 14:26:51;;;;;;;;;;;;;;;11.96;80.56;101364.31;7362280;19;19921;-67
2022/12/27 14:29:36;;;;;;;;;;;;;;;11.97;80.45;101366.00;7361404;19;20022;-66
2022/12/27 14:32:12;;;;;;;;;;;;;;;11.98;80.26;101363.22;7358917;19;19943;-68
2022/12/27 14:34:55;;;;;;;;;;;;;;;11.97;80.03;101372.09;7362430;19;20042;-67
2022/12/27 14:37:43;;;;;;;;;;;;;;;11.98;79.98;101365.84;7359995;19;19927;-66
2022/12/27 14:40:20;;;;;;;;;;;;;;;11.98;80.32;101355.31;7359358;19;20238;-68
2022/12/27 14:43:14;;;;;;;;;;;;;;;12.02;80.96;101352.34;7359805;19;20260;-68
2022/12/27 14:45:59;;;;;;;;;;;;;;;12.02;81.28;101345.28;7362683;19;19919;-67
2022/12/27 14:48:26;;;;;;;;;;;;;;;12.05;81.69;101344.13;7359811;19;20566;-68
2022/12/27 14:51:05;;;;;;;;;;;;;;;12.03;80.82;101335.56;7356960;19;19938;-67